sensor_id;sensor_type;location;lat;lon;timestamp;temperature;humidity
51655;DHT22;37732;53.106;7.030;2023-03-31T00:00:56;10.40;99.90
51655;DHT22;37732;53.106;7.030;2023-03-31T00:03:25;10.40;99.90
51655;DHT22;37732;53.106;7.030;2023-03-31T00:05:59;10.40;99.90
51655;DHT22;37732;53.106;7.030;2023-03-31T00:08:27;10.40;99.90
51655;DHT22;37732;53.106;7.030;2023-03-31T00:10:57;10.40;99.90
51655;DHT22;37732;53.106;7.030;2023-03-31T00:13:24;10.40;99.90
51655;DHT22;37732;53.106;7.030;2023-03-31T00:15:59;10.40;99.90
51655;DHT22;37732;53.106;7.030;2023-03-31T00:18:26;10.50;99.90
51655;DHT22;37732;53.106;7.030;2023-03-31T00:20:53;10.50;99.90
51655;DHT22;37732;53.106;7.030;2023-03-31T00:23:19;10.30;99.90
51655;DHT22;37732;53.106;7.030;2023-03-31T00:25:53;10.50;99.90
51655;DHT22;37732;53.106;7.030;2023-03-31T00:28:19;10.60;99.90
51655;DHT22;37732;53.106;7.030;2023-03-31T00:30:45;10.60;99.90
51655;DHT22;37732;53.106;7.030;2023-03-31T00:33:12;10.60;99.90
51655;DHT22;37732;53.106;7.030;2023-03-31T00:35:37;10.50;99.90
51655;DHT22;37732;53.106;7.030;2023-03-31T00:38:04;10.60;99.90
51655;DHT22;37732;53.106;7.030;2023-03-31T00:40:34;10.60;99.90
51655;DHT22;37732;53.106;7.030;2023-03-31T00:42:59;10.50;99.90
51655;DHT22;37732;53.106;7.030;2023-03-31T00:45:29;10.50;99.90
51655;DHT22;37732;53.106;7.030;2023-03-31T00:48:04;10.40;99.90
51655;DHT22;37732;53.106;7.030;2023-03-31T00:50:40;10.40;99.90
51655;DHT22;37732;53.106;7.030;2023-03-31T00:53:11;10.30;99.90
51655;DHT22;37732;53.106;7.030;2023-03-31T00:55:48;10.20;99.90
51655;DHT22;37732;53.106;7.030;2023-03-31T00:58:15;10.20;99.90
51655;DHT22;37732;53.106;7.030;2023-03-31T01:03:20;10.10;99.90
51655;DHT22;37732;53.106;7.030;2023-03-31T01:05:56;10.00;99.90
51655;DHT22;37732;53.106;7.030;2023-03-31T01:08:25;10.00;99.90
51655;DHT22;37732;53.106;7.030;2023-03-31T01:11:02;9.90;99.90
51655;DHT22;37732;53.106;7.030;2023-03-31T01:13:29;9.90;99.90
51655;DHT22;37732;53.106;7.030;2023-03-31T01:15:56;9.70;99.90
51655;DHT22;37732;53.106;7.030;2023-03-31T01:18:23;9.70;99.90
51655;DHT22;37732;53.106;7.030;2023-03-31T01:37:50;9.40;99.90
51655;DHT22;37732;53.106;7.030;2023-03-31T01:42:38;9.40;99.90
51655;DHT22;37732;53.106;7.030;2023-03-31T01:45:53;9.30;99.90
51655;DHT22;37732;53.106;7.030;2023-03-31T01:54:41;9.20;99.90
51655;DHT22;37732;53.106;7.030;2023-03-31T01:57:20;9.30;99.90
51655;DHT22;37732;53.106;7.030;2023-03-31T02:00:23;9.30;99.90
51655;DHT22;37732;53.106;7.030;2023-03-31T02:03:10;9.20;99.90
51655;DHT22;37732;53.106;7.030;2023-03-31T02:05:52;9.20;99.90
51655;DHT22;37732;53.106;7.030;2023-03-31T02:08:40;9.30;99.90
51655;DHT22;37732;53.106;7.030;2023-03-31T02:11:07;9.30;99.90
51655;DHT22;37732;53.106;7.030;2023-03-31T02:13:35;9.20;99.90
51655;DHT22;37732;53.106;7.030;2023-03-31T02:16:06;9.20;99.90
51655;DHT22;37732;53.106;7.030;2023-03-31T02:18:34;9.30;99.90
51655;DHT22;37732;53.106;7.030;2023-03-31T02:21:04;9.30;99.90
51655;DHT22;37732;53.106;7.030;2023-03-31T02:23:31;9.30;99.90
51655;DHT22;37732;53.106;7.030;2023-03-31T02:26:06;9.30;99.90
51655;DHT22;37732;53.106;7.030;2023-03-31T02:28:32;9.30;99.90
51655;DHT22;37732;53.106;7.030;2023-03-31T02:33:54;9.40;99.90
51655;DHT22;37732;53.106;7.030;2023-03-31T02:36:21;9.40;99.90
51655;DHT22;37732;53.106;7.030;2023-03-31T02:38:54;9.40;99.90
51655;DHT22;37732;53.106;7.030;2023-03-31T02:41:21;9.40;99.90
51655;DHT22;37732;53.106;7.030;2023-03-31T02:43:47;9.40;99.90
51655;DHT22;37732;53.106;7.030;2023-03-31T02:46:13;9.40;99.90
51655;DHT22;37732;53.106;7.030;2023-03-31T02:48:45;9.40;99.90
51655;DHT22;37732;53.106;7.030;2023-03-31T02:51:17;9.40;99.90
51655;DHT22;37732;53.106;7.030;2023-03-31T02:54:19;9.40;99.90
51655;DHT22;37732;53.106;7.030;2023-03-31T03:00:02;9.50;99.90
51655;DHT22;37732;53.106;7.030;2023-03-31T03:05:42;9.40;99.90
51655;DHT22;37732;53.106;7.030;2023-03-31T03:13:24;9.50;99.90
51655;DHT22;37732;53.106;7.030;2023-03-31T03:16:20;9.50;99.90
51655;DHT22;37732;53.106;7.030;2023-03-31T03:19:07;9.50;99.90
51655;DHT22;37732;53.106;7.030;2023-03-31T03:21:34;9.50;99.90
51655;DHT22;37732;53.106;7.030;2023-03-31T03:24:00;9.50;99.90
51655;DHT22;37732;53.106;7.030;2023-03-31T03:26:26;9.50;99.90
51655;DHT22;37732;53.106;7.030;2023-03-31T03:28:54;9.60;99.90
51655;DHT22;37732;53.106;7.030;2023-03-31T03:31:21;9.60;99.90
51655;DHT22;37732;53.106;7.030;2023-03-31T03:33:51;9.70;99.90
51655;DHT22;37732;53.106;7.030;2023-03-31T03:36:17;9.60;99.90
51655;DHT22;37732;53.106;7.030;2023-03-31T03:38:43;9.60;99.90
51655;DHT22;37732;53.106;7.030;2023-03-31T03:41:09;9.60;99.90
51655;DHT22;37732;53.106;7.030;2023-03-31T03:43:35;9.60;99.90
51655;DHT22;37732;53.106;7.030;2023-03-31T03:46:01;9.60;99.90
51655;DHT22;37732;53.106;7.030;2023-03-31T03:48:26;9.60;99.90
51655;DHT22;37732;53.106;7.030;2023-03-31T03:50:52;9.60;99.90
51655;DHT22;37732;53.106;7.030;2023-03-31T03:53:19;9.60;99.90
51655;DHT22;37732;53.106;7.030;2023-03-31T03:55:45;9.50;99.90
51655;DHT22;37732;53.106;7.030;2023-03-31T03:58:14;9.50;99.90
51655;DHT22;37732;53.106;7.030;2023-03-31T04:00:40;9.60;99.90
51655;DHT22;37732;53.106;7.030;2023-03-31T04:03:06;9.60;99.90
51655;DHT22;37732;53.106;7.030;2023-03-31T04:05:32;9.60;99.90
51655;DHT22;37732;53.106;7.030;2023-03-31T04:07:57;9.60;99.90
51655;DHT22;37732;53.106;7.030;2023-03-31T04:10:23;9.60;99.90
51655;DHT22;37732;53.106;7.030;2023-03-31T04:12:49;9.60;99.90
51655;DHT22;37732;53.106;7.030;2023-03-31T04:15:14;9.60;99.90
51655;DHT22;37732;53.106;7.030;2023-03-31T04:17:40;9.60;99.90
51655;DHT22;37732;53.106;7.030;2023-03-31T04:20:07;9.50;99.90
51655;DHT22;37732;53.106;7.030;2023-03-31T04:22:37;9.60;99.90
51655;DHT22;37732;53.106;7.030;2023-03-31T04:25:08;9.60;99.90
51655;DHT22;37732;53.106;7.030;2023-03-31T04:27:35;9.60;99.90
51655;DHT22;37732;53.106;7.030;2023-03-31T04:30:01;9.60;99.90
51655;DHT22;37732;53.106;7.030;2023-03-31T04:32:26;9.50;99.90
51655;DHT22;37732;53.106;7.030;2023-03-31T04:34:52;9.60;99.90
51655;DHT22;37732;53.106;7.030;2023-03-31T04:37:28;9.60;99.90
51655;DHT22;37732;53.106;7.030;2023-03-31T04:40:00;9.60;99.90
51655;DHT22;37732;53.106;7.030;2023-03-31T04:42:32;9.50;99.90
51655;DHT22;37732;53.106;7.030;2023-03-31T04:44:58;9.60;99.90
51655;DHT22;37732;53.106;7.030;2023-03-31T04:47:24;9.60;99.90
51655;DHT22;37732;53.106;7.030;2023-03-31T04:49:49;9.60;99.90
51655;DHT22;37732;53.106;7.030;2023-03-31T04:52:15;9.60;99.90
51655;DHT22;37732;53.106;7.030;2023-03-31T04:54:41;9.70;99.90
51655;DHT22;37732;53.106;7.030;2023-03-31T04:57:06;9.60;99.90
51655;DHT22;37732;53.106;7.030;2023-03-31T04:59:32;9.60;99.90
51655;DHT22;37732;53.106;7.030;2023-03-31T05:01:58;9.70;99.90
51655;DHT22;37732;53.106;7.030;2023-03-31T05:04:23;9.60;99.90
51655;DHT22;37732;53.106;7.030;2023-03-31T05:06:49;9.60;99.90
51655;DHT22;37732;53.106;7.030;2023-03-31T05:09:15;9.60;99.90
51655;DHT22;37732;53.106;7.030;2023-03-31T05:11:41;9.60;99.90
51655;DHT22;37732;53.106;7.030;2023-03-31T05:14:06;9.70;99.90
51655;DHT22;37732;53.106;7.030;2023-03-31T05:16:32;9.70;99.90
51655;DHT22;37732;53.106;7.030;2023-03-31T05:18:58;9.60;99.90
51655;DHT22;37732;53.106;7.030;2023-03-31T05:21:24;9.70;99.90
51655;DHT22;37732;53.106;7.030;2023-03-31T05:23:51;9.70;99.90
51655;DHT22;37732;53.106;7.030;2023-03-31T05:26:17;9.70;99.90
51655;DHT22;37732;53.106;7.030;2023-03-31T05:28:43;9.70;99.90
51655;DHT22;37732;53.106;7.030;2023-03-31T05:31:09;9.60;99.90
51655;DHT22;37732;53.106;7.030;2023-03-31T05:33:37;9.60;99.90
51655;DHT22;37732;53.106;7.030;2023-03-31T05:36:07;9.70;99.90
51655;DHT22;37732;53.106;7.030;2023-03-31T05:38:33;9.60;99.90
51655;DHT22;37732;53.106;7.030;2023-03-31T05:40:59;9.60;99.90
51655;DHT22;37732;53.106;7.030;2023-03-31T05:43:24;9.60;99.90
51655;DHT22;37732;53.106;7.030;2023-03-31T05:45:50;9.60;99.90
51655;DHT22;37732;53.106;7.030;2023-03-31T05:48:16;9.60;99.90
51655;DHT22;37732;53.106;7.030;2023-03-31T05:50:42;9.60;99.90
51655;DHT22;37732;53.106;7.030;2023-03-31T05:53:08;9.60;99.90
51655;DHT22;37732;53.106;7.030;2023-03-31T05:55:37;9.60;99.90
51655;DHT22;37732;53.106;7.030;2023-03-31T05:58:03;9.60;99.90
51655;DHT22;37732;53.106;7.030;2023-03-31T06:00:29;9.70;99.90
51655;DHT22;37732;53.106;7.030;2023-03-31T06:02:56;9.60;99.90
51655;DHT22;37732;53.106;7.030;2023-03-31T06:05:22;9.60;99.90
51655;DHT22;37732;53.106;7.030;2023-03-31T06:07:51;9.70;99.90
51655;DHT22;37732;53.106;7.030;2023-03-31T06:10:18;9.70;99.90
51655;DHT22;37732;53.106;7.030;2023-03-31T06:12:43;9.70;99.90
51655;DHT22;37732;53.106;7.030;2023-03-31T06:15:09;9.70;99.90
51655;DHT22;37732;53.106;7.030;2023-03-31T06:17:35;9.70;99.90
51655;DHT22;37732;53.106;7.030;2023-03-31T06:20:00;9.70;99.90
51655;DHT22;37732;53.106;7.030;2023-03-31T06:22:26;9.70;99.90
51655;DHT22;37732;53.106;7.030;2023-03-31T06:24:52;9.70;99.90
51655;DHT22;37732;53.106;7.030;2023-03-31T06:27:17;9.80;99.90
51655;DHT22;37732;53.106;7.030;2023-03-31T06:29:43;9.80;99.90
51655;DHT22;37732;53.106;7.030;2023-03-31T06:32:09;9.80;99.90
51655;DHT22;37732;53.106;7.030;2023-03-31T06:34:34;9.80;99.90
51655;DHT22;37732;53.106;7.030;2023-03-31T06:37:00;9.80;99.90
51655;DHT22;37732;53.106;7.030;2023-03-31T06:39:26;9.80;99.90
51655;DHT22;37732;53.106;7.030;2023-03-31T06:41:52;9.80;99.90
51655;DHT22;37732;53.106;7.030;2023-03-31T06:44:18;9.90;99.90
51655;DHT22;37732;53.106;7.030;2023-03-31T06:46:47;9.90;99.90
51655;DHT22;37732;53.106;7.030;2023-03-31T06:49:13;9.90;99.90
51655;DHT22;37732;53.106;7.030;2023-03-31T06:51:39;9.90;99.90
51655;DHT22;37732;53.106;7.030;2023-03-31T06:54:04;9.90;99.90
51655;DHT22;37732;53.106;7.030;2023-03-31T06:56:30;9.90;99.90
51655;DHT22;37732;53.106;7.030;2023-03-31T06:58:56;10.00;99.90
51655;DHT22;37732;53.106;7.030;2023-03-31T07:01:22;9.90;99.90
51655;DHT22;37732;53.106;7.030;2023-03-31T07:03:47;10.00;99.90
51655;DHT22;37732;53.106;7.030;2023-03-31T07:06:13;10.00;99.90
51655;DHT22;37732;53.106;7.030;2023-03-31T07:08:39;10.00;99.90
51655;DHT22;37732;53.106;7.030;2023-03-31T07:11:04;10.00;99.90
51655;DHT22;37732;53.106;7.030;2023-03-31T07:13:30;10.00;99.90
51655;DHT22;37732;53.106;7.030;2023-03-31T07:15:56;10.00;99.90
51655;DHT22;37732;53.106;7.030;2023-03-31T07:18:22;10.10;99.90
51655;DHT22;37732;53.106;7.030;2023-03-31T07:20:51;10.00;99.90
51655;DHT22;37732;53.106;7.030;2023-03-31T07:23:17;10.10;99.90
51655;DHT22;37732;53.106;7.030;2023-03-31T07:25:43;10.10;99.90
51655;DHT22;37732;53.106;7.030;2023-03-31T07:28:09;10.10;99.90
51655;DHT22;37732;53.106;7.030;2023-03-31T07:30:35;10.10;99.90
51655;DHT22;37732;53.106;7.030;2023-03-31T07:33:01;10.10;99.90
51655;DHT22;37732;53.106;7.030;2023-03-31T07:35:27;10.20;99.90
51655;DHT22;37732;53.106;7.030;2023-03-31T07:37:52;10.10;99.90
51655;DHT22;37732;53.106;7.030;2023-03-31T07:40:26;10.10;99.90
51655;DHT22;37732;53.106;7.030;2023-03-31T07:42:53;10.10;99.90
51655;DHT22;37732;53.106;7.030;2023-03-31T07:45:20;10.20;99.90
51655;DHT22;37732;53.106;7.030;2023-03-31T07:47:46;10.10;99.90
51655;DHT22;37732;53.106;7.030;2023-03-31T07:50:13;10.20;99.90
51655;DHT22;37732;53.106;7.030;2023-03-31T07:52:39;10.10;99.90
51655;DHT22;37732;53.106;7.030;2023-03-31T07:55:05;10.20;99.90
51655;DHT22;37732;53.106;7.030;2023-03-31T07:57:32;10.20;99.90
51655;DHT22;37732;53.106;7.030;2023-03-31T07:59:58;10.20;99.90
51655;DHT22;37732;53.106;7.030;2023-03-31T08:02:23;10.10;99.90
51655;DHT22;37732;53.106;7.030;2023-03-31T08:04:49;10.20;99.90
51655;DHT22;37732;53.106;7.030;2023-03-31T08:07:15;10.20;99.90
51655;DHT22;37732;53.106;7.030;2023-03-31T08:09:43;10.20;99.90
51655;DHT22;37732;53.106;7.030;2023-03-31T08:12:09;10.20;99.90
51655;DHT22;37732;53.106;7.030;2023-03-31T08:14:35;10.20;99.90
51655;DHT22;37732;53.106;7.030;2023-03-31T08:17:01;10.20;99.90
51655;DHT22;37732;53.106;7.030;2023-03-31T08:19:27;10.20;99.90
51655;DHT22;37732;53.106;7.030;2023-03-31T08:21:52;10.20;99.90
51655;DHT22;37732;53.106;7.030;2023-03-31T08:24:18;10.20;99.90
51655;DHT22;37732;53.106;7.030;2023-03-31T08:26:44;10.20;99.90
51655;DHT22;37732;53.106;7.030;2023-03-31T08:29:10;10.30;99.90
51655;DHT22;37732;53.106;7.030;2023-03-31T08:31:36;10.20;99.90
51655;DHT22;37732;53.106;7.030;2023-03-31T08:34:02;10.30;99.90
51655;DHT22;37732;53.106;7.030;2023-03-31T08:36:29;10.20;99.90
51655;DHT22;37732;53.106;7.030;2023-03-31T08:38:55;10.30;99.90
51655;DHT22;37732;53.106;7.030;2023-03-31T08:43:59;10.30;99.90
51655;DHT22;37732;53.106;7.030;2023-03-31T08:46:28;10.30;99.90
51655;DHT22;37732;53.106;7.030;2023-03-31T08:48:57;10.30;99.90
51655;DHT22;37732;53.106;7.030;2023-03-31T08:56:28;10.40;99.90
51655;DHT22;37732;53.106;7.030;2023-03-31T08:58:54;10.50;99.90
51655;DHT22;37732;53.106;7.030;2023-03-31T09:06:40;10.60;99.90
51655;DHT22;37732;53.106;7.030;2023-03-31T09:11:59;10.60;99.90
51655;DHT22;37732;53.106;7.030;2023-03-31T09:14:37;10.60;99.90
51655;DHT22;37732;53.106;7.030;2023-03-31T09:17:23;10.70;99.90
51655;DHT22;37732;53.106;7.030;2023-03-31T09:19:58;10.70;99.90
51655;DHT22;37732;53.106;7.030;2023-03-31T09:22:33;10.70;99.90
51655;DHT22;37732;53.106;7.030;2023-03-31T09:25:17;10.70;99.90
51655;DHT22;37732;53.106;7.030;2023-03-31T09:27:44;10.70;99.90
51655;DHT22;37732;53.106;7.030;2023-03-31T09:30:22;10.70;99.90
51655;DHT22;37732;53.106;7.030;2023-03-31T09:33:13;10.80;99.90
51655;DHT22;37732;53.106;7.030;2023-03-31T09:35:40;10.80;99.90
51655;DHT22;37732;53.106;7.030;2023-03-31T09:38:11;10.80;99.90
51655;DHT22;37732;53.106;7.030;2023-03-31T09:40:38;10.80;99.90
51655;DHT22;37732;53.106;7.030;2023-03-31T09:43:15;10.80;99.90
51655;DHT22;37732;53.106;7.030;2023-03-31T09:45:43;10.80;99.90
51655;DHT22;37732;53.106;7.030;2023-03-31T09:48:14;10.90;99.90
51655;DHT22;37732;53.106;7.030;2023-03-31T09:50:51;10.90;99.90
51655;DHT22;37732;53.106;7.030;2023-03-31T09:53:28;10.90;99.90
51655;DHT22;37732;53.106;7.030;2023-03-31T09:56:01;10.90;99.90
51655;DHT22;37732;53.106;7.030;2023-03-31T09:58:27;11.00;99.90
51655;DHT22;37732;53.106;7.030;2023-03-31T10:01:04;11.00;99.90
51655;DHT22;37732;53.106;7.030;2023-03-31T10:03:32;11.00;99.90
51655;DHT22;37732;53.106;7.030;2023-03-31T10:06:08;11.00;99.90
51655;DHT22;37732;53.106;7.030;2023-03-31T10:08:41;11.00;99.90
51655;DHT22;37732;53.106;7.030;2023-03-31T10:11:09;11.00;99.90
51655;DHT22;37732;53.106;7.030;2023-03-31T10:14:14;11.00;99.90
51655;DHT22;37732;53.106;7.030;2023-03-31T10:16:33;11.10;99.90
51655;DHT22;37732;53.106;7.030;2023-03-31T10:21:45;11.10;99.90
51655;DHT22;37732;53.106;7.030;2023-03-31T10:24:11;11.20;99.90
51655;DHT22;37732;53.106;7.030;2023-03-31T10:26:37;11.20;99.90
51655;DHT22;37732;53.106;7.030;2023-03-31T10:29:11;11.20;99.90
51655;DHT22;37732;53.106;7.030;2023-03-31T10:31:37;11.20;99.90
51655;DHT22;37732;53.106;7.030;2023-03-31T10:34:06;11.20;99.90
51655;DHT22;37732;53.106;7.030;2023-03-31T10:36:32;11.20;99.90
51655;DHT22;37732;53.106;7.030;2023-03-31T10:39:05;11.30;99.90
51655;DHT22;37732;53.106;7.030;2023-03-31T10:41:32;11.30;99.90
51655;DHT22;37732;53.106;7.030;2023-03-31T10:44:00;11.30;99.90
51655;DHT22;37732;53.106;7.030;2023-03-31T10:49:22;11.40;99.90
51655;DHT22;37732;53.106;7.030;2023-03-31T10:51:57;11.40;99.90
51655;DHT22;37732;53.106;7.030;2023-03-31T10:54:24;11.40;99.90
51655;DHT22;37732;53.106;7.030;2023-03-31T10:56:59;11.50;99.90
51655;DHT22;37732;53.106;7.030;2023-03-31T11:05:18;11.60;99.90
51655;DHT22;37732;53.106;7.030;2023-03-31T11:11:07;11.60;99.90
51655;DHT22;37732;53.106;7.030;2023-03-31T11:13:43;11.70;99.90
51655;DHT22;37732;53.106;7.030;2023-03-31T11:22:39;11.80;99.90
51655;DHT22;37732;53.106;7.030;2023-03-31T11:30:57;12.10;99.90
51655;DHT22;37732;53.106;7.030;2023-03-31T11:42:19;12.70;99.90
51655;DHT22;37732;53.106;7.030;2023-03-31T11:44:50;12.70;99.90
51655;DHT22;37732;53.106;7.030;2023-03-31T11:47:36;12.80;99.90
51655;DHT22;37732;53.106;7.030;2023-03-31T11:50:11;12.70;99.90
51655;DHT22;37732;53.106;7.030;2023-03-31T11:52:50;12.70;99.90
51655;DHT22;37732;53.106;7.030;2023-03-31T11:55:21;12.70;99.90
51655;DHT22;37732;53.106;7.030;2023-03-31T12:00:23;12.60;99.90
51655;DHT22;37732;53.106;7.030;2023-03-31T12:05:32;12.50;99.90
51655;DHT22;37732;53.106;7.030;2023-03-31T12:08:57;12.50;99.90
51655;DHT22;37732;53.106;7.030;2023-03-31T12:11:04;12.60;99.90
51655;DHT22;37732;53.106;7.030;2023-03-31T12:13:39;12.50;99.90
51655;DHT22;37732;53.106;7.030;2023-03-31T12:16:22;12.50;99.90
51655;DHT22;37732;53.106;7.030;2023-03-31T12:18:58;12.50;99.90
51655;DHT22;37732;53.106;7.030;2023-03-31T12:21:28;12.40;99.90
51655;DHT22;37732;53.106;7.030;2023-03-31T12:23:55;12.30;99.90
51655;DHT22;37732;53.106;7.030;2023-03-31T12:29:31;12.30;99.90
51655;DHT22;37732;53.106;7.030;2023-03-31T12:32:02;12.40;99.90
51655;DHT22;37732;53.106;7.030;2023-03-31T12:34:30;12.50;99.90
51655;DHT22;37732;53.106;7.030;2023-03-31T12:42:49;13.10;99.90
51655;DHT22;37732;53.106;7.030;2023-03-31T12:48:17;13.50;99.90
51655;DHT22;37732;53.106;7.030;2023-03-31T12:51:30;13.80;99.90
51655;DHT22;37732;53.106;7.030;2023-03-31T12:54:35;13.90;99.90
51655;DHT22;37732;53.106;7.030;2023-03-31T12:59:41;13.70;99.90
51655;DHT22;37732;53.106;7.030;2023-03-31T13:04:42;13.60;99.90
51655;DHT22;37732;53.106;7.030;2023-03-31T13:13:13;13.40;99.90
51655;DHT22;37732;53.106;7.030;2023-03-31T13:15:53;13.40;99.90
51655;DHT22;37732;53.106;7.030;2023-03-31T13:18:21;13.40;99.90
51655;DHT22;37732;53.106;7.030;2023-03-31T13:20:59;13.40;99.90
51655;DHT22;37732;53.106;7.030;2023-03-31T13:23:26;13.50;99.90
51655;DHT22;37732;53.106;7.030;2023-03-31T13:25:56;13.60;99.90
51655;DHT22;37732;53.106;7.030;2023-03-31T13:33:56;14.00;99.90
51655;DHT22;37732;53.106;7.030;2023-03-31T13:58:18;13.30;99.90
51655;DHT22;37732;53.106;7.030;2023-03-31T14:06:55;13.20;99.90
51655;DHT22;37732;53.106;7.030;2023-03-31T14:09:39;13.40;99.90
51655;DHT22;37732;53.106;7.030;2023-03-31T14:12:31;13.50;99.90
51655;DHT22;37732;53.106;7.030;2023-03-31T14:14:57;13.60;99.90
51655;DHT22;37732;53.106;7.030;2023-03-31T14:17:33;13.60;99.90
51655;DHT22;37732;53.106;7.030;2023-03-31T14:38:21;13.30;99.90
51655;DHT22;37732;53.106;7.030;2023-03-31T14:40:50;13.30;99.90
51655;DHT22;37732;53.106;7.030;2023-03-31T14:43:30;13.30;99.90
51655;DHT22;37732;53.106;7.030;2023-03-31T14:46:06;13.30;99.90
51655;DHT22;37732;53.106;7.030;2023-03-31T14:48:35;13.20;99.90
51655;DHT22;37732;53.106;7.030;2023-03-31T14:51:08;13.00;99.90
51655;DHT22;37732;53.106;7.030;2023-03-31T14:53:35;13.00;99.90
51655;DHT22;37732;53.106;7.030;2023-03-31T14:56:13;12.90;99.90
51655;DHT22;37732;53.106;7.030;2023-03-31T14:58:49;13.00;99.90
51655;DHT22;37732;53.106;7.030;2023-03-31T15:01:20;12.90;99.90
51655;DHT22;37732;53.106;7.030;2023-03-31T15:03:49;12.90;99.90
51655;DHT22;37732;53.106;7.030;2023-03-31T15:06:16;12.90;99.90
51655;DHT22;37732;53.106;7.030;2023-03-31T15:08:42;12.90;99.90
51655;DHT22;37732;53.106;7.030;2023-03-31T15:11:13;12.90;99.90
51655;DHT22;37732;53.106;7.030;2023-03-31T15:18:59;13.10;99.90
51655;DHT22;37732;53.106;7.030;2023-03-31T15:21:27;13.00;99.90
51655;DHT22;37732;53.106;7.030;2023-03-31T15:23:56;13.00;99.90
51655;DHT22;37732;53.106;7.030;2023-03-31T15:26:27;13.00;99.90
51655;DHT22;37732;53.106;7.030;2023-03-31T15:29:00;13.00;99.90
51655;DHT22;37732;53.106;7.030;2023-03-31T15:31:26;13.00;99.90
51655;DHT22;37732;53.106;7.030;2023-03-31T15:33:52;13.00;99.90
51655;DHT22;37732;53.106;7.030;2023-03-31T15:36:19;13.10;99.90
51655;DHT22;37732;53.106;7.030;2023-03-31T15:38:46;13.10;99.90
51655;DHT22;37732;53.106;7.030;2023-03-31T15:41:19;13.10;99.90
51655;DHT22;37732;53.106;7.030;2023-03-31T15:43:48;13.10;99.90
51655;DHT22;37732;53.106;7.030;2023-03-31T15:46:25;13.00;99.90
51655;DHT22;37732;53.106;7.030;2023-03-31T15:49:21;13.00;99.90
51655;DHT22;37732;53.106;7.030;2023-03-31T15:51:50;12.90;99.90
51655;DHT22;37732;53.106;7.030;2023-03-31T15:54:35;12.90;99.90
51655;DHT22;37732;53.106;7.030;2023-03-31T15:57:06;12.80;99.90
51655;DHT22;37732;53.106;7.030;2023-03-31T15:59:48;12.80;99.90
51655;DHT22;37732;53.106;7.030;2023-03-31T16:02:18;12.70;99.90
51655;DHT22;37732;53.106;7.030;2023-03-31T16:04:47;12.70;99.90
51655;DHT22;37732;53.106;7.030;2023-03-31T16:07:21;12.70;99.90
51655;DHT22;37732;53.106;7.030;2023-03-31T16:10:17;12.70;99.90
51655;DHT22;37732;53.106;7.030;2023-03-31T16:12:56;12.70;99.90
51655;DHT22;37732;53.106;7.030;2023-03-31T16:15:39;12.70;99.90
51655;DHT22;37732;53.106;7.030;2023-03-31T16:18:16;12.70;99.90
51655;DHT22;37732;53.106;7.030;2023-03-31T16:20:49;12.70;99.90
51655;DHT22;37732;53.106;7.030;2023-03-31T16:23:27;12.60;99.90
51655;DHT22;37732;53.106;7.030;2023-03-31T16:25:55;12.60;99.90
51655;DHT22;37732;53.106;7.030;2023-03-31T16:28:27;12.60;99.90
51655;DHT22;37732;53.106;7.030;2023-03-31T16:30:54;12.60;99.90
51655;DHT22;37732;53.106;7.030;2023-03-31T16:33:21;12.60;99.90
51655;DHT22;37732;53.106;7.030;2023-03-31T16:35:51;12.60;99.90
51655;DHT22;37732;53.106;7.030;2023-03-31T16:38:26;12.60;99.90
51655;DHT22;37732;53.106;7.030;2023-03-31T16:40:53;12.60;99.90
51655;DHT22;37732;53.106;7.030;2023-03-31T16:43:20;12.60;99.90
51655;DHT22;37732;53.106;7.030;2023-03-31T16:45:51;12.60;99.90
51655;DHT22;37732;53.106;7.030;2023-03-31T16:48:20;12.60;99.90
51655;DHT22;37732;53.106;7.030;2023-03-31T16:50:47;12.60;99.90
51655;DHT22;37732;53.106;7.030;2023-03-31T16:53:16;12.50;99.90
51655;DHT22;37732;53.106;7.030;2023-03-31T16:55:43;12.50;99.90
51655;DHT22;37732;53.106;7.030;2023-03-31T16:58:09;12.50;99.90
51655;DHT22;37732;53.106;7.030;2023-03-31T17:00:35;12.50;99.90
51655;DHT22;37732;53.106;7.030;2023-03-31T17:03:02;12.40;99.90
51655;DHT22;37732;53.106;7.030;2023-03-31T17:05:29;12.40;99.90
51655;DHT22;37732;53.106;7.030;2023-03-31T17:07:59;12.40;99.90
51655;DHT22;37732;53.106;7.030;2023-03-31T17:10:25;12.30;99.90
51655;DHT22;37732;53.106;7.030;2023-03-31T17:12:51;12.30;99.90
51655;DHT22;37732;53.106;7.030;2023-03-31T17:15:16;12.30;99.90
51655;DHT22;37732;53.106;7.030;2023-03-31T17:17:42;12.30;99.90
51655;DHT22;37732;53.106;7.030;2023-03-31T17:20:09;12.30;99.90
51655;DHT22;37732;53.106;7.030;2023-03-31T17:22:35;12.30;99.90
51655;DHT22;37732;53.106;7.030;2023-03-31T17:25:01;12.20;99.90
51655;DHT22;37732;53.106;7.030;2023-03-31T17:27:28;12.20;99.90
51655;DHT22;37732;53.106;7.030;2023-03-31T17:29:55;12.10;99.90
51655;DHT22;37732;53.106;7.030;2023-03-31T17:32:21;12.10;99.90
51655;DHT22;37732;53.106;7.030;2023-03-31T17:34:47;12.00;99.90
51655;DHT22;37732;53.106;7.030;2023-03-31T17:37:17;11.90;99.90
51655;DHT22;37732;53.106;7.030;2023-03-31T17:39:44;11.80;99.90
51655;DHT22;37732;53.106;7.030;2023-03-31T17:42:11;11.70;99.90
51655;DHT22;37732;53.106;7.030;2023-03-31T17:44:38;11.60;99.90
51655;DHT22;37732;53.106;7.030;2023-03-31T17:47:04;11.50;99.90
51655;DHT22;37732;53.106;7.030;2023-03-31T17:49:31;11.50;99.90
51655;DHT22;37732;53.106;7.030;2023-03-31T17:51:57;11.40;99.90
51655;DHT22;37732;53.106;7.030;2023-03-31T17:54:23;11.40;99.90
51655;DHT22;37732;53.106;7.030;2023-03-31T17:56:50;11.30;99.90
51655;DHT22;37732;53.106;7.030;2023-03-31T17:59:16;11.30;99.90
51655;DHT22;37732;53.106;7.030;2023-03-31T18:01:43;11.20;99.90
51655;DHT22;37732;53.106;7.030;2023-03-31T18:04:09;11.20;99.90
51655;DHT22;37732;53.106;7.030;2023-03-31T18:06:35;11.20;99.90
51655;DHT22;37732;53.106;7.030;2023-03-31T18:09:01;11.20;99.90
51655;DHT22;37732;53.106;7.030;2023-03-31T18:11:27;11.10;99.90
51655;DHT22;37732;53.106;7.030;2023-03-31T18:13:53;11.10;99.90
51655;DHT22;37732;53.106;7.030;2023-03-31T18:16:20;11.10;99.90
51655;DHT22;37732;53.106;7.030;2023-03-31T18:18:45;11.00;99.90
51655;DHT22;37732;53.106;7.030;2023-03-31T18:21:13;11.00;99.90
51655;DHT22;37732;53.106;7.030;2023-03-31T18:23:39;11.00;99.90
51655;DHT22;37732;53.106;7.030;2023-03-31T18:26:06;11.00;99.90
51655;DHT22;37732;53.106;7.030;2023-03-31T18:28:32;11.00;99.90
51655;DHT22;37732;53.106;7.030;2023-03-31T18:31:07;11.00;99.90
51655;DHT22;37732;53.106;7.030;2023-03-31T18:33:34;11.00;99.90
51655;DHT22;37732;53.106;7.030;2023-03-31T18:36:00;10.90;99.90
51655;DHT22;37732;53.106;7.030;2023-03-31T18:38:26;10.90;99.90
51655;DHT22;37732;53.106;7.030;2023-03-31T18:40:52;10.90;99.90
51655;DHT22;37732;53.106;7.030;2023-03-31T18:43:19;10.90;99.90
51655;DHT22;37732;53.106;7.030;2023-03-31T18:45:49;10.90;99.90
51655;DHT22;37732;53.106;7.030;2023-03-31T18:48:16;10.90;99.90
51655;DHT22;37732;53.106;7.030;2023-03-31T18:50:44;10.90;99.90